sensor_id;sensor_type;location;lat;lon;timestamp;temperature;humidity
1083;DHT22;530;51.448;7.238;2023-04-25T00:01:11;8.50;99.90
1083;DHT22;530;51.448;7.238;2023-04-25T00:03:38;8.50;99.90
1083;DHT22;530;51.448;7.238;2023-04-25T00:06:04;8.50;99.90
1083;DHT22;530;51.448;7.238;2023-04-25T00:08:30;8.50;99.90
1083;DHT22;530;51.448;7.238;2023-04-25T00:10:57;8.50;99.90
1083;DHT22;530;51.448;7.238;2023-04-25T00:13:23;8.50;99.90
1083;DHT22;530;51.448;7.238;2023-04-25T00:15:48;8.50;99.90
1083;DHT22;530;51.448;7.238;2023-04-25T00:18:15;8.50;99.90
1083;DHT22;530;51.448;7.238;2023-04-25T00:20:41;8.60;99.90
1083;DHT22;530;51.448;7.238;2023-04-25T00:23:15;8.60;99.90
1083;DHT22;530;51.448;7.238;2023-04-25T00:25:43;8.60;99.90
1083;DHT22;530;51.448;7.238;2023-04-25T00:28:10;8.60;99.90
1083;DHT22;530;51.448;7.238;2023-04-25T00:30:36;8.60;99.90
1083;DHT22;530;51.448;7.238;2023-04-25T00:33:02;8.60;99.90
1083;DHT22;530;51.448;7.238;2023-04-25T00:35:27;8.60;99.90
1083;DHT22;530;51.448;7.238;2023-04-25T00:37:54;8.70;99.90
1083;DHT22;530;51.448;7.238;2023-04-25T00:40:20;8.70;99.90
1083;DHT22;530;51.448;7.238;2023-04-25T00:42:46;8.60;99.90
1083;DHT22;530;51.448;7.238;2023-04-25T00:45:14;8.70;99.90
1083;DHT22;530;51.448;7.238;2023-04-25T00:47:41;8.60;99.90
1083;DHT22;530;51.448;7.238;2023-04-25T00:50:07;8.60;99.90
1083;DHT22;530;51.448;7.238;2023-04-25T00:52:33;8.60;99.90
1083;DHT22;530;51.448;7.238;2023-04-25T00:55:00;8.70;99.90
1083;DHT22;530;51.448;7.238;2023-04-25T00:57:26;8.70;99.90
1083;DHT22;530;51.448;7.238;2023-04-25T00:59:52;8.70;99.90
1083;DHT22;530;51.448;7.238;2023-04-25T01:02:19;8.70;99.90
1083;DHT22;530;51.448;7.238;2023-04-25T01:04:46;8.70;99.90
1083;DHT22;530;51.448;7.238;2023-04-25T01:07:13;8.70;99.90
1083;DHT22;530;51.448;7.238;2023-04-25T01:09:39;8.60;99.90
1083;DHT22;530;51.448;7.238;2023-04-25T01:12:05;8.70;99.90
1083;DHT22;530;51.448;7.238;2023-04-25T01:14:31;8.60;99.90
1083;DHT22;530;51.448;7.238;2023-04-25T01:16:59;8.70;99.90
1083;DHT22;530;51.448;7.238;2023-04-25T01:19:25;8.60;99.90
1083;DHT22;530;51.448;7.238;2023-04-25T01:21:51;8.70;99.90
1083;DHT22;530;51.448;7.238;2023-04-25T01:24:17;8.70;99.90
1083;DHT22;530;51.448;7.238;2023-04-25T01:26:43;8.70;99.90
1083;DHT22;530;51.448;7.238;2023-04-25T01:29:18;8.70;99.90
1083;DHT22;530;51.448;7.238;2023-04-25T01:31:45;8.70;99.90
1083;DHT22;530;51.448;7.238;2023-04-25T01:34:12;8.70;99.90
1083;DHT22;530;51.448;7.238;2023-04-25T01:36:38;8.70;99.90
1083;DHT22;530;51.448;7.238;2023-04-25T01:39:04;8.70;99.90
1083;DHT22;530;51.448;7.238;2023-04-25T01:41:31;8.80;99.90
1083;DHT22;530;51.448;7.238;2023-04-25T01:43:56;8.80;99.90
1083;DHT22;530;51.448;7.238;2023-04-25T01:46:22;8.80;99.90
1083;DHT22;530;51.448;7.238;2023-04-25T01:48:48;8.70;99.90
1083;DHT22;530;51.448;7.238;2023-04-25T01:51:13;8.70;99.90
1083;DHT22;530;51.448;7.238;2023-04-25T01:53:40;8.70;99.90
1083;DHT22;530;51.448;7.238;2023-04-25T01:56:06;8.70;99.90
1083;DHT22;530;51.448;7.238;2023-04-25T01:58:32;8.80;99.90
1083;DHT22;530;51.448;7.238;2023-04-25T02:00:58;8.80;99.90
1083;DHT22;530;51.448;7.238;2023-04-25T02:03:24;8.80;99.90
1083;DHT22;530;51.448;7.238;2023-04-25T02:05:49;8.70;99.90
1083;DHT22;530;51.448;7.238;2023-04-25T02:08:16;8.70;99.90
1083;DHT22;530;51.448;7.238;2023-04-25T02:10:43;8.70;99.90
1083;DHT22;530;51.448;7.238;2023-04-25T02:13:08;8.70;99.90
1083;DHT22;530;51.448;7.238;2023-04-25T02:15:34;8.70;99.90
1083;DHT22;530;51.448;7.238;2023-04-25T02:18:00;8.70;99.90
1083;DHT22;530;51.448;7.238;2023-04-25T02:20:27;8.70;99.90
1083;DHT22;530;51.448;7.238;2023-04-25T02:22:52;8.70;99.90
1083;DHT22;530;51.448;7.238;2023-04-25T02:25:20;8.70;99.90
1083;DHT22;530;51.448;7.238;2023-04-25T02:27:48;8.70;99.90
1083;DHT22;530;51.448;7.238;2023-04-25T02:30:14;8.60;99.90
1083;DHT22;530;51.448;7.238;2023-04-25T02:32:40;8.70;99.90
1083;DHT22;530;51.448;7.238;2023-04-25T02:35:06;8.70;99.90
1083;DHT22;530;51.448;7.238;2023-04-25T02:37:33;8.60;99.90
1083;DHT22;530;51.448;7.238;2023-04-25T02:40:00;8.70;99.90
1083;DHT22;530;51.448;7.238;2023-04-25T02:42:26;8.70;99.90
1083;DHT22;530;51.448;7.238;2023-04-25T02:44:52;8.80;99.90
1083;DHT22;530;51.448;7.238;2023-04-25T02:47:18;8.70;99.90
1083;DHT22;530;51.448;7.238;2023-04-25T02:49:43;8.70;99.90
1083;DHT22;530;51.448;7.238;2023-04-25T02:52:09;8.70;99.90
1083;DHT22;530;51.448;7.238;2023-04-25T02:54:34;8.70;99.90
1083;DHT22;530;51.448;7.238;2023-04-25T02:57:00;8.60;99.90
1083;DHT22;530;51.448;7.238;2023-04-25T02:59:28;8.70;99.90
1083;DHT22;530;51.448;7.238;2023-04-25T03:01:53;8.60;99.90
1083;DHT22;530;51.448;7.238;2023-04-25T03:04:19;8.70;99.90
1083;DHT22;530;51.448;7.238;2023-04-25T03:06:46;8.70;99.90
1083;DHT22;530;51.448;7.238;2023-04-25T03:09:12;8.70;99.90
1083;DHT22;530;51.448;7.238;2023-04-25T03:11:39;8.70;99.90
1083;DHT22;530;51.448;7.238;2023-04-25T03:14:04;8.60;99.90
1083;DHT22;530;51.448;7.238;2023-04-25T03:16:30;8.70;99.90
1083;DHT22;530;51.448;7.238;2023-04-25T03:18:56;8.60;99.90
1083;DHT22;530;51.448;7.238;2023-04-25T03:21:22;8.60;99.90
1083;DHT22;530;51.448;7.238;2023-04-25T03:23:48;8.60;99.90
1083;DHT22;530;51.448;7.238;2023-04-25T03:26:14;8.60;99.90
1083;DHT22;530;51.448;7.238;2023-04-25T03:28:39;8.60;99.90
1083;DHT22;530;51.448;7.238;2023-04-25T03:31:05;8.50;99.90
1083;DHT22;530;51.448;7.238;2023-04-25T03:33:31;8.50;99.90
1083;DHT22;530;51.448;7.238;2023-04-25T03:35:57;8.50;99.90
1083;DHT22;530;51.448;7.238;2023-04-25T03:38:23;8.50;99.90
1083;DHT22;530;51.448;7.238;2023-04-25T03:40:49;8.50;99.90
1083;DHT22;530;51.448;7.238;2023-04-25T03:43:16;8.40;99.90
1083;DHT22;530;51.448;7.238;2023-04-25T03:45:42;8.60;99.90
1083;DHT22;530;51.448;7.238;2023-04-25T03:48:07;8.60;99.90
1083;DHT22;530;51.448;7.238;2023-04-25T03:50:33;8.60;99.90
1083;DHT22;530;51.448;7.238;2023-04-25T03:52:59;8.60;99.90
1083;DHT22;530;51.448;7.238;2023-04-25T03:55:24;8.60;99.90
1083;DHT22;530;51.448;7.238;2023-04-25T03:57:50;8.60;99.90
1083;DHT22;530;51.448;7.238;2023-04-25T04:00:16;8.50;99.90
1083;DHT22;530;51.448;7.238;2023-04-25T04:02:42;8.50;99.90
1083;DHT22;530;51.448;7.238;2023-04-25T04:05:08;8.50;99.90
1083;DHT22;530;51.448;7.238;2023-04-25T04:07:33;8.50;99.90
1083;DHT22;530;51.448;7.238;2023-04-25T04:10:11;8.50;99.90
1083;DHT22;530;51.448;7.238;2023-04-25T04:12:37;8.50;99.90
1083;DHT22;530;51.448;7.238;2023-04-25T04:15:04;8.50;99.90
1083;DHT22;530;51.448;7.238;2023-04-25T04:17:31;8.50;99.90
1083;DHT22;530;51.448;7.238;2023-04-25T04:19:57;8.50;99.90
1083;DHT22;530;51.448;7.238;2023-04-25T04:22:23;8.40;99.90
1083;DHT22;530;51.448;7.238;2023-04-25T04:24:50;8.40;99.90
1083;DHT22;530;51.448;7.238;2023-04-25T04:27:17;8.30;99.90
1083;DHT22;530;51.448;7.238;2023-04-25T04:29:43;8.20;99.90
1083;DHT22;530;51.448;7.238;2023-04-25T04:32:09;8.30;99.90
1083;DHT22;530;51.448;7.238;2023-04-25T04:34:35;8.30;99.90
1083;DHT22;530;51.448;7.238;2023-04-25T04:37:01;8.20;99.90
1083;DHT22;530;51.448;7.238;2023-04-25T04:39:27;8.20;99.90
1083;DHT22;530;51.448;7.238;2023-04-25T04:41:53;8.20;99.90
1083;DHT22;530;51.448;7.238;2023-04-25T04:44:18;8.10;99.90
1083;DHT22;530;51.448;7.238;2023-04-25T04:46:45;8.10;99.90
1083;DHT22;530;51.448;7.238;2023-04-25T04:49:12;8.10;99.90
1083;DHT22;530;51.448;7.238;2023-04-25T04:51:39;8.10;99.90
1083;DHT22;530;51.448;7.238;2023-04-25T04:54:05;8.10;99.90
1083;DHT22;530;51.448;7.238;2023-04-25T04:56:32;8.10;99.90
1083;DHT22;530;51.448;7.238;2023-04-25T04:58:58;8.10;99.90
1083;DHT22;530;51.448;7.238;2023-04-25T05:01:24;8.10;99.90
1083;DHT22;530;51.448;7.238;2023-04-25T05:03:50;8.10;99.90
1083;DHT22;530;51.448;7.238;2023-04-25T05:06:18;8.10;99.90
1083;DHT22;530;51.448;7.238;2023-04-25T05:08:44;8.00;99.90
1083;DHT22;530;51.448;7.238;2023-04-25T05:11:10;8.00;99.90
1083;DHT22;530;51.448;7.238;2023-04-25T05:13:36;8.00;99.90
1083;DHT22;530;51.448;7.238;2023-04-25T05:16:02;8.10;99.90
1083;DHT22;530;51.448;7.238;2023-04-25T05:18:28;7.90;99.90
1083;DHT22;530;51.448;7.238;2023-04-25T05:20:53;8.00;99.90
1083;DHT22;530;51.448;7.238;2023-04-25T05:23:19;7.90;99.90
1083;DHT22;530;51.448;7.238;2023-04-25T05:25:45;8.00;99.90
1083;DHT22;530;51.448;7.238;2023-04-25T05:28:13;7.90;99.90
1083;DHT22;530;51.448;7.238;2023-04-25T05:30:39;7.90;99.90
1083;DHT22;530;51.448;7.238;2023-04-25T05:33:05;7.90;99.90
1083;DHT22;530;51.448;7.238;2023-04-25T05:35:30;7.90;99.90
1083;DHT22;530;51.448;7.238;2023-04-25T05:37:56;7.90;99.90
1083;DHT22;530;51.448;7.238;2023-04-25T05:40:22;8.00;99.90
1083;DHT22;530;51.448;7.238;2023-04-25T05:42:47;8.10;99.90
1083;DHT22;530;51.448;7.238;2023-04-25T05:45:13;8.00;99.90
1083;DHT22;530;51.448;7.238;2023-04-25T05:47:39;8.00;99.90
1083;DHT22;530;51.448;7.238;2023-04-25T05:50:05;8.10;99.90
1083;DHT22;530;51.448;7.238;2023-04-25T05:52:31;8.10;99.90
1083;DHT22;530;51.448;7.238;2023-04-25T05:54:57;8.10;99.90
1083;DHT22;530;51.448;7.238;2023-04-25T05:57:26;8.10;99.90
1083;DHT22;530;51.448;7.238;2023-04-25T05:59:52;8.20;99.90
1083;DHT22;530;51.448;7.238;2023-04-25T06:02:19;8.20;99.90
1083;DHT22;530;51.448;7.238;2023-04-25T06:04:46;8.30;99.90
1083;DHT22;530;51.448;7.238;2023-04-25T06:07:11;8.30;99.90
1083;DHT22;530;51.448;7.238;2023-04-25T06:09:37;8.30;99.90
1083;DHT22;530;51.448;7.238;2023-04-25T06:12:05;8.30;99.90
1083;DHT22;530;51.448;7.238;2023-04-25T06:14:31;8.40;99.90
1083;DHT22;530;51.448;7.238;2023-04-25T06:16:56;8.50;99.90
1083;DHT22;530;51.448;7.238;2023-04-25T06:19:22;8.50;99.90
1083;DHT22;530;51.448;7.238;2023-04-25T06:21:48;8.60;99.90
1083;DHT22;530;51.448;7.238;2023-04-25T06:24:13;8.60;99.90
1083;DHT22;530;51.448;7.238;2023-04-25T06:26:39;8.60;99.90
1083;DHT22;530;51.448;7.238;2023-04-25T06:29:05;8.60;99.90
1083;DHT22;530;51.448;7.238;2023-04-25T06:31:30;8.60;99.90
1083;DHT22;530;51.448;7.238;2023-04-25T06:33:58;8.70;99.90
1083;DHT22;530;51.448;7.238;2023-04-25T06:36:24;8.70;99.90
1083;DHT22;530;51.448;7.238;2023-04-25T06:38:51;8.80;99.90
1083;DHT22;530;51.448;7.238;2023-04-25T06:41:18;8.90;99.90
1083;DHT22;530;51.448;7.238;2023-04-25T06:43:44;9.00;99.90
1083;DHT22;530;51.448;7.238;2023-04-25T06:46:10;9.10;99.90
1083;DHT22;530;51.448;7.238;2023-04-25T06:48:36;9.10;99.90
1083;DHT22;530;51.448;7.238;2023-04-25T06:51:02;9.10;99.90
1083;DHT22;530;51.448;7.238;2023-04-25T06:53:28;9.10;99.90
1083;DHT22;530;51.448;7.238;2023-04-25T06:55:54;9.20;99.90
1083;DHT22;530;51.448;7.238;2023-04-25T06:58:19;9.20;99.90
1083;DHT22;530;51.448;7.238;2023-04-25T07:00:45;9.20;99.90
1083;DHT22;530;51.448;7.238;2023-04-25T07:03:10;9.20;99.90
1083;DHT22;530;51.448;7.238;2023-04-25T07:05:37;9.20;99.90
1083;DHT22;530;51.448;7.238;2023-04-25T07:08:02;9.20;99.90
1083;DHT22;530;51.448;7.238;2023-04-25T07:10:28;9.30;99.90
1083;DHT22;530;51.448;7.238;2023-04-25T07:12:54;9.20;99.90
1083;DHT22;530;51.448;7.238;2023-04-25T07:15:20;9.20;99.90
1083;DHT22;530;51.448;7.238;2023-04-25T07:17:45;9.20;99.90
1083;DHT22;530;51.448;7.238;2023-04-25T07:20:11;9.10;99.90
1083;DHT22;530;51.448;7.238;2023-04-25T07:22:37;9.10;99.90
1083;DHT22;530;51.448;7.238;2023-04-25T07:25:03;9.00;99.90
1083;DHT22;530;51.448;7.238;2023-04-25T07:27:30;8.90;99.90
1083;DHT22;530;51.448;7.238;2023-04-25T07:29:55;8.90;99.90
1083;DHT22;530;51.448;7.238;2023-04-25T07:32:21;9.00;99.90
1083;DHT22;530;51.448;7.238;2023-04-25T07:34:47;9.00;99.90
1083;DHT22;530;51.448;7.238;2023-04-25T07:37:13;9.00;99.90
1083;DHT22;530;51.448;7.238;2023-04-25T07:39:39;9.00;99.90
1083;DHT22;530;51.448;7.238;2023-04-25T07:42:05;9.00;99.90
1083;DHT22;530;51.448;7.238;2023-04-25T07:44:34;9.10;99.90
1083;DHT22;530;51.448;7.238;2023-04-25T07:47:05;9.20;99.90
1083;DHT22;530;51.448;7.238;2023-04-25T07:49:38;9.20;99.90
1083;DHT22;530;51.448;7.238;2023-04-25T07:52:05;9.20;99.90
1083;DHT22;530;51.448;7.238;2023-04-25T07:54:35;9.20;99.90
1083;DHT22;530;51.448;7.238;2023-04-25T07:57:00;9.30;99.90
1083;DHT22;530;51.448;7.238;2023-04-25T07:59:26;9.30;99.90
1083;DHT22;530;51.448;7.238;2023-04-25T08:01:52;9.40;99.90
1083;DHT22;530;51.448;7.238;2023-04-25T08:04:17;9.40;99.90
1083;DHT22;530;51.448;7.238;2023-04-25T08:06:43;9.40;99.90
1083;DHT22;530;51.448;7.238;2023-04-25T08:09:09;9.40;99.90
1083;DHT22;530;51.448;7.238;2023-04-25T08:11:35;9.60;99.90
1083;DHT22;530;51.448;7.238;2023-04-25T08:14:01;9.60;99.90
1083;DHT22;530;51.448;7.238;2023-04-25T08:16:27;9.70;99.90
1083;DHT22;530;51.448;7.238;2023-04-25T08:18:53;9.80;99.90
1083;DHT22;530;51.448;7.238;2023-04-25T08:21:19;9.80;99.90
1083;DHT22;530;51.448;7.238;2023-04-25T08:23:45;9.80;99.90
1083;DHT22;530;51.448;7.238;2023-04-25T08:26:11;9.90;99.90
1083;DHT22;530;51.448;7.238;2023-04-25T08:28:37;9.90;99.90
1083;DHT22;530;51.448;7.238;2023-04-25T08:31:03;9.90;99.90
1083;DHT22;530;51.448;7.238;2023-04-25T08:33:28;9.90;99.90
1083;DHT22;530;51.448;7.238;2023-04-25T08:35:55;10.00;99.90
1083;DHT22;530;51.448;7.238;2023-04-25T08:38:21;10.00;99.90
1083;DHT22;530;51.448;7.238;2023-04-25T08:40:49;10.00;99.90
1083;DHT22;530;51.448;7.238;2023-04-25T08:43:18;10.00;99.90
1083;DHT22;530;51.448;7.238;2023-04-25T08:45:44;10.00;99.90
1083;DHT22;530;51.448;7.238;2023-04-25T08:48:17;10.10;99.90
1083;DHT22;530;51.448;7.238;2023-04-25T08:53:12;10.10;99.90
1083;DHT22;530;51.448;7.238;2023-04-25T08:55:44;10.10;99.90
1083;DHT22;530;51.448;7.238;2023-04-25T08:58:11;10.10;99.90
1083;DHT22;530;51.448;7.238;2023-04-25T09:00:37;10.10;99.90
1083;DHT22;530;51.448;7.238;2023-04-25T09:03:03;10.10;99.90
1083;DHT22;530;51.448;7.238;2023-04-25T09:05:29;10.20;99.90
1083;DHT22;530;51.448;7.238;2023-04-25T09:07:55;10.30;99.90
1083;DHT22;530;51.448;7.238;2023-04-25T09:10:22;10.30;99.90
1083;DHT22;530;51.448;7.238;2023-04-25T09:18:16;10.60;99.90
1083;DHT22;530;51.448;7.238;2023-04-25T09:20:47;10.60;99.90
1083;DHT22;530;51.448;7.238;2023-04-25T09:23:14;10.70;99.90
1083;DHT22;530;51.448;7.238;2023-04-25T09:25:40;10.70;99.90
1083;DHT22;530;51.448;7.238;2023-04-25T09:28:08;10.80;99.90
1083;DHT22;530;51.448;7.238;2023-04-25T09:30:35;10.90;99.90
1083;DHT22;530;51.448;7.238;2023-04-25T09:33:11;10.90;99.90
1083;DHT22;530;51.448;7.238;2023-04-25T09:35:43;10.90;99.90
1083;DHT22;530;51.448;7.238;2023-04-25T09:38:13;10.90;99.90
1083;DHT22;530;51.448;7.238;2023-04-25T09:40:40;11.00;99.90
1083;DHT22;530;51.448;7.238;2023-04-25T09:43:24;10.90;99.90
1083;DHT22;530;51.448;7.238;2023-04-25T09:45:54;11.00;99.90
1083;DHT22;530;51.448;7.238;2023-04-25T09:48:24;11.00;99.90
1083;DHT22;530;51.448;7.238;2023-04-25T09:51:06;11.00;99.90
1083;DHT22;530;51.448;7.238;2023-04-25T09:53:46;11.10;99.90
1083;DHT22;530;51.448;7.238;2023-04-25T09:56:12;11.00;99.90
1083;DHT22;530;51.448;7.238;2023-04-25T09:58:39;10.90;99.90
1083;DHT22;530;51.448;7.238;2023-04-25T10:01:10;10.90;99.90
1083;DHT22;530;51.448;7.238;2023-04-25T10:03:39;11.00;99.90
1083;DHT22;530;51.448;7.238;2023-04-25T10:06:12;11.00;99.90
1083;DHT22;530;51.448;7.238;2023-04-25T10:08:38;11.00;99.90
1083;DHT22;530;51.448;7.238;2023-04-25T10:11:06;11.00;99.90
1083;DHT22;530;51.448;7.238;2023-04-25T10:13:33;11.00;99.90
1083;DHT22;530;51.448;7.238;2023-04-25T10:16:00;11.10;99.90
1083;DHT22;530;51.448;7.238;2023-04-25T10:18:27;11.20;99.90
1083;DHT22;530;51.448;7.238;2023-04-25T10:20:58;11.40;99.90
1083;DHT22;530;51.448;7.238;2023-04-25T10:23:25;11.50;99.90
1083;DHT22;530;51.448;7.238;2023-04-25T10:25:52;11.60;99.90
1083;DHT22;530;51.448;7.238;2023-04-25T10:28:18;11.80;99.90
1083;DHT22;530;51.448;7.238;2023-04-25T10:30:57;11.90;98.40
1083;DHT22;530;51.448;7.238;2023-04-25T10:33:37;11.80;98.40
1083;DHT22;530;51.448;7.238;2023-04-25T10:36:10;11.80;97.90
1083;DHT22;530;51.448;7.238;2023-04-25T10:38:36;11.70;96.90
1083;DHT22;530;51.448;7.238;2023-04-25T10:41:07;11.60;97.90
1083;DHT22;530;51.448;7.238;2023-04-25T10:43:39;11.50;97.40
1083;DHT22;530;51.448;7.238;2023-04-25T10:46:37;11.40;97.80
1083;DHT22;530;51.448;7.238;2023-04-25T10:49:03;11.30;98.30
1083;DHT22;530;51.448;7.238;2023-04-25T10:51:33;11.30;98.40
1083;DHT22;530;51.448;7.238;2023-04-25T10:56:29;11.10;98.70
1083;DHT22;530;51.448;7.238;2023-04-25T10:59:08;11.10;98.60
1083;DHT22;530;51.448;7.238;2023-04-25T11:01:43;11.00;98.10
1083;DHT22;530;51.448;7.238;2023-04-25T11:09:24;10.80;98.60
1083;DHT22;530;51.448;7.238;2023-04-25T11:11:57;10.80;99.80
1083;DHT22;530;51.448;7.238;2023-04-25T11:14:24;10.80;99.90
1083;DHT22;530;51.448;7.238;2023-04-25T11:16:54;10.70;99.90
1083;DHT22;530;51.448;7.238;2023-04-25T11:19:23;10.70;99.90
1083;DHT22;530;51.448;7.238;2023-04-25T11:21:50;10.60;99.90
1083;DHT22;530;51.448;7.238;2023-04-25T11:24:18;10.50;99.90
1083;DHT22;530;51.448;7.238;2023-04-25T11:26:46;10.50;99.90
1083;DHT22;530;51.448;7.238;2023-04-25T11:29:13;10.50;99.90
1083;DHT22;530;51.448;7.238;2023-04-25T11:31:43;10.50;99.90
1083;DHT22;530;51.448;7.238;2023-04-25T11:34:10;10.40;99.90
1083;DHT22;530;51.448;7.238;2023-04-25T11:36:38;10.40;99.90
1083;DHT22;530;51.448;7.238;2023-04-25T11:39:04;10.40;99.90
1083;DHT22;530;51.448;7.238;2023-04-25T11:41:31;10.40;99.90
1083;DHT22;530;51.448;7.238;2023-04-25T11:43:57;10.50;99.90
1083;DHT22;530;51.448;7.238;2023-04-25T11:46:22;10.50;99.90
1083;DHT22;530;51.448;7.238;2023-04-25T11:48:48;10.60;99.90
1083;DHT22;530;51.448;7.238;2023-04-25T11:51:15;10.60;99.90
1083;DHT22;530;51.448;7.238;2023-04-25T11:53:42;10.60;99.90
1083;DHT22;530;51.448;7.238;2023-04-25T11:56:10;10.70;99.90
1083;DHT22;530;51.448;7.238;2023-04-25T11:59:02;10.90;99.90
1083;DHT22;530;51.448;7.238;2023-04-25T12:01:38;10.90;99.90
1083;DHT22;530;51.448;7.238;2023-04-25T12:04:19;11.00;99.90
1083;DHT22;530;51.448;7.238;2023-04-25T12:06:46;11.10;99.90
1083;DHT22;530;51.448;7.238;2023-04-25T12:09:29;11.30;99.90
1083;DHT22;530;51.448;7.238;2023-04-25T12:11:57;11.50;99.90
1083;DHT22;530;51.448;7.238;2023-04-25T12:14:28;11.50;99.90
1083;DHT22;530;51.448;7.238;2023-04-25T12:16:56;11.60;99.40
1083;DHT22;530;51.448;7.238;2023-04-25T12:19:23;11.60;98.80
1083;DHT22;530;51.448;7.238;2023-04-25T12:21:49;11.70;97.90
1083;DHT22;530;51.448;7.238;2023-04-25T12:24:17;11.80;99.30
1083;DHT22;530;51.448;7.238;2023-04-25T12:29:23;12.00;97.30
1083;DHT22;530;51.448;7.238;2023-04-25T12:31:50;12.10;97.60
1083;DHT22;530;51.448;7.238;2023-04-25T12:34:17;12.10;96.70
1083;DHT22;530;51.448;7.238;2023-04-25T12:36:43;12.10;97.00
1083;DHT22;530;51.448;7.238;2023-04-25T12:39:13;12.00;96.30
1083;DHT22;530;51.448;7.238;2023-04-25T12:41:40;11.90;95.90
1083;DHT22;530;51.448;7.238;2023-04-25T12:44:06;11.80;96.60
1083;DHT22;530;51.448;7.238;2023-04-25T12:46:32;11.80;97.80
1083;DHT22;530;51.448;7.238;2023-04-25T12:48:57;11.80;97.90
1083;DHT22;530;51.448;7.238;2023-04-25T12:51:23;11.90;97.70
1083;DHT22;530;51.448;7.238;2023-04-25T12:53:51;11.90;97.10
1083;DHT22;530;51.448;7.238;2023-04-25T12:56:17;11.80;96.20
1083;DHT22;530;51.448;7.238;2023-04-25T12:58:43;11.90;96.70
1083;DHT22;530;51.448;7.238;2023-04-25T13:01:09;11.90;97.50
1083;DHT22;530;51.448;7.238;2023-04-25T13:03:35;12.00;97.90
1083;DHT22;530;51.448;7.238;2023-04-25T13:06:01;12.00;96.80
1083;DHT22;530;51.448;7.238;2023-04-25T13:08:26;12.00;96.90
1083;DHT22;530;51.448;7.238;2023-04-25T13:10:52;11.90;97.70
1083;DHT22;530;51.448;7.238;2023-04-25T13:13:18;11.80;97.80
1083;DHT22;530;51.448;7.238;2023-04-25T13:15:43;11.80;97.70
1083;DHT22;530;51.448;7.238;2023-04-25T13:18:09;11.70;97.30
1083;DHT22;530;51.448;7.238;2023-04-25T13:20:35;11.60;98.20
1083;DHT22;530;51.448;7.238;2023-04-25T13:23:01;11.50;98.90
1083;DHT22;530;51.448;7.238;2023-04-25T13:25:26;11.40;99.90
1083;DHT22;530;51.448;7.238;2023-04-25T13:27:52;11.30;99.90
1083;DHT22;530;51.448;7.238;2023-04-25T13:30:18;11.20;99.90
1083;DHT22;530;51.448;7.238;2023-04-25T13:32:43;11.20;99.90
1083;DHT22;530;51.448;7.238;2023-04-25T13:35:12;11.20;99.90
1083;DHT22;530;51.448;7.238;2023-04-25T13:37:38;11.20;99.90
1083;DHT22;530;51.448;7.238;2023-04-25T13:40:09;11.10;99.90
1083;DHT22;530;51.448;7.238;2023-04-25T13:42:37;11.10;99.90
1083;DHT22;530;51.448;7.238;2023-04-25T13:45:03;11.10;99.90
1083;DHT22;530;51.448;7.238;2023-04-25T13:47:30;11.00;99.90
1083;DHT22;530;51.448;7.238;2023-04-25T13:49:56;11.10;99.90
1083;DHT22;530;51.448;7.238;2023-04-25T13:52:22;11.00;99.90
1083;DHT22;530;51.448;7.238;2023-04-25T13:54:49;11.00;99.90
1083;DHT22;530;51.448;7.238;2023-04-25T13:57:16;11.00;99.90
1083;DHT22;530;51.448;7.238;2023-04-25T13:59:42;11.00;99.90
1083;DHT22;530;51.448;7.238;2023-04-25T14:02:07;11.10;99.90
1083;DHT22;530;51.448;7.238;2023-04-25T14:04:33;11.20;99.90
1083;DHT22;530;51.448;7.238;2023-04-25T14:06:59;11.20;99.90
1083;DHT22;530;51.448;7.238;2023-04-25T14:09:25;11.20;99.90
1083;DHT22;530;51.448;7.238;2023-04-25T14:11:52;11.30;99.90
1083;DHT22;530;51.448;7.238;2023-04-25T14:14:19;11.30;99.10
1083;DHT22;530;51.448;7.238;2023-04-25T14:16:46;11.40;98.60
1083;DHT22;530;51.448;7.238;2023-04-25T14:19:14;11.50;98.30
1083;DHT22;530;51.448;7.238;2023-04-25T14:21:39;11.60;98.80
1083;DHT22;530;51.448;7.238;2023-04-25T14:24:06;11.60;99.30
1083;DHT22;530;51.448;7.238;2023-04-25T14:26:33;11.70;98.90
1083;DHT22;530;51.448;7.238;2023-04-25T14:29:00;11.80;97.70
1083;DHT22;530;51.448;7.238;2023-04-25T14:31:26;11.80;98.20
1083;DHT22;530;51.448;7.238;2023-04-25T14:33:53;11.90;98.20
1083;DHT22;530;51.448;7.238;2023-04-25T14:36:18;11.90;97.70
1083;DHT22;530;51.448;7.238;2023-04-25T14:38:44;11.90;97.20
1083;DHT22;530;51.448;7.238;2023-04-25T14:41:10;11.90;96.30
1083;DHT22;530;51.448;7.238;2023-04-25T14:43:36;11.90;97.20
1083;DHT22;530;51.448;7.238;2023-04-25T14:46:02;11.90;96.90
1083;DHT22;530;51.448;7.238;2023-04-25T14:48:29;11.90;96.50
1083;DHT22;530;51.448;7.238;2023-04-25T14:50:54;12.00;96.20
1083;DHT22;530;51.448;7.238;2023-04-25T14:53:22;12.10;95.20
1083;DHT22;530;51.448;7.238;2023-04-25T14:55:48;12.10;94.80
1083;DHT22;530;51.448;7.238;2023-04-25T14:58:14;12.20;95.00
1083;DHT22;530;51.448;7.238;2023-04-25T15:00:40;12.20;95.00
1083;DHT22;530;51.448;7.238;2023-04-25T15:03:06;12.30;93.90
1083;DHT22;530;51.448;7.238;2023-04-25T15:05:33;12.30;92.80
1083;DHT22;530;51.448;7.238;2023-04-25T15:07:59;12.30;93.30
1083;DHT22;530;51.448;7.238;2023-04-25T15:10:25;12.30;93.20
1083;DHT22;530;51.448;7.238;2023-04-25T15:12:51;12.30;92.60
1083;DHT22;530;51.448;7.238;2023-04-25T15:15:19;12.20;92.10
1083;DHT22;530;51.448;7.238;2023-04-25T15:17:44;12.10;93.20
1083;DHT22;530;51.448;7.238;2023-04-25T15:20:12;12.10;94.50
1083;DHT22;530;51.448;7.238;2023-04-25T15:22:42;11.90;95.90
1083;DHT22;530;51.448;7.238;2023-04-25T15:25:09;11.90;97.10
1083;DHT22;530;51.448;7.238;2023-04-25T15:27:39;11.90;97.60
1083;DHT22;530;51.448;7.238;2023-04-25T15:30:11;11.90;97.60
1083;DHT22;530;51.448;7.238;2023-04-25T15:32:39;11.90;98.00
1083;DHT22;530;51.448;7.238;2023-04-25T15:35:05;11.90;98.20
1083;DHT22;530;51.448;7.238;2023-04-25T15:37:35;12.00;98.00
1083;DHT22;530;51.448;7.238;2023-04-25T15:40:13;12.00;97.40
1083;DHT22;530;51.448;7.238;2023-04-25T15:42:47;12.00;97.30
1083;DHT22;530;51.448;7.238;2023-04-25T15:45:16;12.10;96.60
1083;DHT22;530;51.448;7.238;2023-04-25T15:47:43;12.10;95.70
1083;DHT22;530;51.448;7.238;2023-04-25T15:50:09;12.10;95.00
1083;DHT22;530;51.448;7.238;2023-04-25T15:52:36;12.00;94.90
1083;DHT22;530;51.448;7.238;2023-04-25T15:55:04;12.00;95.50
1083;DHT22;530;51.448;7.238;2023-04-25T15:57:31;12.00;95.70
1083;DHT22;530;51.448;7.238;2023-04-25T15:59:57;12.00;95.40
1083;DHT22;530;51.448;7.238;2023-04-25T16:02:23;12.00;94.70
1083;DHT22;530;51.448;7.238;2023-04-25T16:04:48;11.90;95.50
1083;DHT22;530;51.448;7.238;2023-04-25T16:07:14;11.90;95.40
1083;DHT22;530;51.448;7.238;2023-04-25T16:09:40;11.80;95.60
1083;DHT22;530;51.448;7.238;2023-04-25T16:12:07;11.70;95.00
1083;DHT22;530;51.448;7.238;2023-04-25T16:14:33;11.60;94.70
1083;DHT22;530;51.448;7.238;2023-04-25T16:16:58;11.50;95.20
1083;DHT22;530;51.448;7.238;2023-04-25T16:19:24;11.40;95.40
1083;DHT22;530;51.448;7.238;2023-04-25T16:21:50;11.50;95.80
1083;DHT22;530;51.448;7.238;2023-04-25T16:24:16;11.60;96.00
1083;DHT22;530;51.448;7.238;2023-04-25T16:26:42;11.60;96.40
1083;DHT22;530;51.448;7.238;2023-04-25T16:29:08;11.60;96.60
1083;DHT22;530;51.448;7.238;2023-04-25T16:31:34;11.60;96.70
1083;DHT22;530;51.448;7.238;2023-04-25T16:34:01;11.60;96.40
1083;DHT22;530;51.448;7.238;2023-04-25T16:36:27;11.60;96.70
1083;DHT22;530;51.448;7.238;2023-04-25T16:38:53;11.50;96.80
1083;DHT22;530;51.448;7.238;2023-04-25T16:41:19;11.50;97.50
1083;DHT22;530;51.448;7.238;2023-04-25T16:43:44;11.50;97.70